Time;durP1;ratioP1;P1;durP2;ratioP2;P2;SDS_P1;SDS_P2;PMS_P1;PMS_P2;Temp;Humidity;BMP_temperature;BMP_pressure;BME280_temperature;BME280_humidity;BME280_pressure;Samples;Min_cycle;Max_cycle;Signal;HPM_P1;HPM_P2
2021/04/18 00:02:05;;;;;;;;;;;;;;;;;;5053607;28;19905;-57
2021/04/18 00:04:31;;;;;;;;;;;;;;;;;;5054743;28;20329;-58
2021/04/18 00:06:57;;;;;;;;;;;;;;;;;;5022266;28;19943;-57
2021/04/18 00:09:23;;;;;;;;;;;;;;;;;;5054540;28;19960;-57
2021/04/18 00:11:49;;;;;;;;;;;;;;;;;;5056081;28;19911;-58
2021/04/18 00:14:15;;;;;;;;;;;;;;;;;;5054934;28;19905;-60
2021/04/18 00:16:41;;;;;;;;;;;;;;;;;;5054096;28;20644;-60
2021/04/18 00:19:07;;;;;;;;;;;;;;;;;;5053930;28;20023;-59
2021/04/18 00:21:33;;;;;;;;;;;;;;;;;;5054205;28;19916;-59
2021/04/18 00:23:59;;;;;;;;;;;;;;;;;;5052902;28;19904;-57
2021/04/18 00:26:25;;;;;;;;;;;;;;;;;;5053100;28;19971;-57
2021/04/18 00:28:51;;;;;;;;;;;;;;;;;;5052905;28;20007;-57
2021/04/18 00:31:17;;;;;;;;;;;;;;;;;;5053378;28;19952;-58
2021/04/18 00:33:43;;;;;;;;;;;;;;;;;;5035012;28;19912;-58
2021/04/18 00:36:09;;;;;;;;;;;;;;;;;;5053063;28;19912;-60
2021/04/18 00:38:35;;;;;;;;;;;;;;;;;;5052817;28;19958;-63
2021/04/18 00:41:01;;;;;;;;;;;;;;;;;;5052834;28;19936;-57
2021/04/18 00:43:27;;;;;;;;;;;;;;;;;;5053120;28;19960;-58
2021/04/18 00:45:52;;;;;;;;;;;;;;;;;;5053002;28;19963;-59
2021/04/18 00:48:18;;;;;;;;;;;;;;;;;;5052485;28;20265;-57
2021/04/18 00:50:44;;;;;;;;;;;;;;;;;;5052491;28;19929;-57
2021/04/18 00:53:10;;;;;;;;;;;;;;;;;;5037536;28;20321;-57
2021/04/18 00:55:36;;;;;;;;;;;;;;;;;;5034404;28;19940;-57
2021/04/18 00:58:02;;;;;;;;;;;;;;;;;;5014500;28;20348;-60
2021/04/18 01:00:28;;;;;;;;;;;;;;;;;;5034478;28;19912;-58
2021/04/18 01:02:54;;;;;;;;;;;;;;;;;;5035293;28;19952;-58
2021/04/18 01:05:21;;;;;;;;;;;;;;;;;;5034505;28;19967;-57
2021/04/18 01:07:47;;;;;;;;;;;;;;;;;;5033802;28;20400;-57
2021/04/18 01:10:13;;;;;;;;;;;;;;;;;;5033060;28;19913;-63
2021/04/18 01:12:39;;;;;;;;;;;;;;;;;;5034964;28;19988;-59
2021/04/18 01:15:05;;;;;;;;;;;;;;;;;;5034281;28;19905;-58
2021/04/18 01:17:30;;;;;;;;;;;;;;;;;;5032739;28;19905;-60
2021/04/18 01:19:56;;;;;;;;;;;;;;;;;;5033128;28;19909;-60
2021/04/18 01:22:22;;;;;;;;;;;;;;;;;;5035129;28;19961;-62
2021/04/18 01:24:48;;;;;;;;;;;;;;;;;;5033765;28;19952;-59
2021/04/18 01:27:19;;;;;;;;;;;;;;;;;;5033718;28;19963;-58
2021/04/18 01:29:45;;;;;;;;;;;;;;;;;;5033178;28;20011;-58
2021/04/18 01:32:11;;;;;;;;;;;;;;;;;;5031935;28;19995;-58
2021/04/18 01:34:37;;;;;;;;;;;;;;;;;;5032314;28;19916;-58
2021/04/18 01:37:03;;;;;;;;;;;;;;;;;;5032116;28;20150;-58
2021/04/18 01:39:29;;;;;;;;;;;;;;;;;;5032217;28;20003;-58
2021/04/18 01:41:55;;;;;;;;;;;;;;;;;;5015172;28;20409;-58
2021/04/18 01:44:21;;;;;;;;;;;;;;;;;;5033091;28;20055;-59
2021/04/18 01:46:47;;;;;;;;;;;;;;;;;;5032361;28;19967;-59
2021/04/18 01:49:13;;;;;;;;;;;;;;;;;;5032885;28;20006;-64
2021/04/18 01:51:38;;;;;;;;;;;;;;;;;;5014454;28;19917;-59
2021/04/18 01:54:05;;;;;;;;;;;;;;;;;;5032002;28;20295;-61
2021/04/18 01:56:31;;;;;;;;;;;;;;;;;;5032304;28;19915;-58
2021/04/18 01:58:57;;;;;;;;;;;;;;;;;;5014291;28;20582;-60
2021/04/18 02:01:23;;;;;;;;;;;;;;;;;;5031987;28;19996;-61
2021/04/18 02:03:49;;;;;;;;;;;;;;;;;;5032042;28;19940;-59
2021/04/18 02:06:15;;;;;;;;;;;;;;;;;;5032015;28;19948;-61
2021/04/18 02:08:41;;;;;;;;;;;;;;;;;;5032007;28;19912;-59
2021/04/18 02:11:07;;;;;;;;;;;;;;;;;;5033075;28;19960;-60
2021/04/18 02:13:33;;;;;;;;;;;;;;;;;;5032565;28;20414;-60
2021/04/18 02:15:59;;;;;;;;;;;;;;;;;;5034200;28;19912;-58
2021/04/18 02:18:25;;;;;;;;;;;;;;;;;;5034332;28;19998;-58
2021/04/18 02:20:51;;;;;;;;;;;;;;;;;;5034444;28;19919;-60
2021/04/18 02:23:17;;;;;;;;;;;;;;;;;;5036258;28;19920;-58
2021/04/18 02:25:43;;;;;;;;;;;;;;;;;;5035598;28;19909;-58
2021/04/18 02:28:09;;;;;;;;;;;;;;;;;;5035631;28;19911;-59
2021/04/18 02:30:34;;;;;;;;;;;;;;;;;;5035457;28;20276;-57
2021/04/18 02:33:00;;;;;;;;;;;;;;;;;;5036049;28;19905;-56
2021/04/18 02:35:26;;;;;;;;;;;;;;;;;;5034977;28;19944;-57
2021/04/18 02:37:52;;;;;;;;;;;;;;;;;;5035246;28;19947;-57
2021/04/18 02:40:18;;;;;;;;;;;;;;;;;;5034755;28;19952;-56
2021/04/18 02:42:44;;;;;;;;;;;;;;;;;;5035415;28;19948;-59
2021/04/18 02:45:10;;;;;;;;;;;;;;;;;;5036643;28;19905;-57
2021/04/18 02:47:36;;;;;;;;;;;;;;;;;;5035170;28;19905;-57
2021/04/18 02:50:02;;;;;;;;;;;;;;;;;;5034709;28;19967;-57
2021/04/18 02:52:28;;;;;;;;;;;;;;;;;;5034656;28;20365;-57
2021/04/18 02:54:54;;;;;;;;;;;;;;;;;;5035815;28;20050;-57
2021/04/18 02:57:20;;;;;;;;;;;;;;;;;;5014634;28;19916;-57
2021/04/18 02:59:45;;;;;;;;;;;;;;;;;;5034914;28;20050;-58
2021/04/18 03:02:11;;;;;;;;;;;;;;;;;;5034620;28;20019;-57
2021/04/18 03:04:37;;;;;;;;;;;;;;;;;;5034658;28;19948;-57
2021/04/18 03:07:03;;;;;;;;;;;;;;;;;;5034600;28;19914;-59
2021/04/18 03:09:29;;;;;;;;;;;;;;;;;;5034674;28;19916;-59
2021/04/18 03:11:55;;;;;;;;;;;;;;;;;;5034194;28;19909;-60
2021/04/18 03:14:21;;;;;;;;;;;;;;;;;;5035467;28;19905;-60
2021/04/18 03:16:47;;;;;;;;;;;;;;;;;;5034916;28;19913;-61
2021/04/18 03:19:13;;;;;;;;;;;;;;;;;;5034609;28;19912;-57
2021/04/18 03:21:39;;;;;;;;;;;;;;;;;;5034700;28;19909;-60
2021/04/18 03:24:05;;;;;;;;;;;;;;;;;;5034009;28;19913;-57
2021/04/18 03:26:31;;;;;;;;;;;;;;;;;;5034390;28;19928;-58
2021/04/18 03:28:57;;;;;;;;;;;;;;;;;;5034030;28;19909;-56
2021/04/18 03:31:22;;;;;;;;;;;;;;;;;;5034287;28;19905;-57
2021/04/18 03:33:51;;;;;;;;;;;;;;;;;;5031658;28;20317;-58
2021/04/18 03:36:17;;;;;;;;;;;;;;;;;;5035156;28;19905;-58
2021/04/18 03:38:42;;;;;;;;;;;;;;;;;;5033861;28;19963;-57
2021/04/18 03:41:08;;;;;;;;;;;;;;;;;;5033884;28;19909;-57
2021/04/18 03:43:34;;;;;;;;;;;;;;;;;;5033699;28;19905;-58
2021/04/18 03:46:00;;;;;;;;;;;;;;;;;;5033930;28;19952;-57
2021/04/18 03:48:26;;;;;;;;;;;;;;;;;;5034119;28;19905;-57
2021/04/18 03:50:52;;;;;;;;;;;;;;;;;;5033858;28;19921;-57
2021/04/18 03:53:18;;;;;;;;;;;;;;;;;;5049262;28;20026;-61
2021/04/18 03:55:44;;;;;;;;;;;;;;;;;;5053314;28;19936;-57
2021/04/18 03:58:10;;;;;;;;;;;;;;;;;;5053782;28;20389;-60
2021/04/18 04:00:36;;;;;;;;;;;;;;;;;;5053589;28;19904;-60
2021/04/18 04:03:02;;;;;;;;;;;;;;;;;;5053632;28;19908;-61
2021/04/18 04:05:28;;;;;;;;;;;;;;;;;;5055615;28;20419;-58
2021/04/18 04:07:54;;;;;;;;;;;;;;;;;;5056492;28;20243;-58
2021/04/18 04:10:20;;;;;;;;;;;;;;;;;;5056010;28;19967;-61
2021/04/18 04:12:46;;;;;;;;;;;;;;;;;;5056560;28;20320;-58
2021/04/18 04:15:12;;;;;;;;;;;;;;;;;;5056113;28;20278;-58
2021/04/18 04:17:39;;;;;;;;;;;;;;;;;;5056235;28;20280;-59
2021/04/18 04:20:05;;;;;;;;;;;;;;;;;;5055631;28;19931;-59
2021/04/18 04:22:31;;;;;;;;;;;;;;;;;;5056140;28;19909;-63
2021/04/18 04:24:58;;;;;;;;;;;;;;;;;;5056095;28;19917;-59
2021/04/18 04:27:24;;;;;;;;;;;;;;;;;;5056918;28;19999;-59
2021/04/18 04:29:52;;;;;;;;;;;;;;;;;;5055658;28;19923;-58
2021/04/18 04:32:18;;;;;;;;;;;;;;;;;;5055464;28;19909;-57
2021/04/18 04:34:44;;;;;;;;;;;;;;;;;;5052592;28;19983;-59
2021/04/18 04:37:10;;;;;;;;;;;;;;;;;;5048465;28;19951;-58
2021/04/18 04:39:35;;;;;;;;;;;;;;;;;;5048206;28;19912;-61
2021/04/18 04:42:02;;;;;;;;;;;;;;;;;;5033834;28;19904;-58
2021/04/18 04:44:29;;;;;;;;;;;;;;;;;;5052488;28;19978;-61
2021/04/18 04:46:55;;;;;;;;;;;;;;;;;;5052484;28;20265;-60
2021/04/18 04:49:22;;;;;;;;;;;;;;;;;;5053626;28;20006;-57
2021/04/18 04:51:48;;;;;;;;;;;;;;;;;;5034943;28;19964;-61
2021/04/18 04:54:14;;;;;;;;;;;;;;;;;;5052629;28;19951;-58
2021/04/18 04:56:39;;;;;;;;;;;;;;;;;;5053858;28;19959;-59
2021/04/18 04:59:05;;;;;;;;;;;;;;;;;;5050443;28;19991;-58
2021/04/18 05:01:31;;;;;;;;;;;;;;;;;;5054804;28;19966;-59
2021/04/18 05:03:57;;;;;;;;;;;;;;;;;;5052892;28;19909;-63
2021/04/18 05:06:23;;;;;;;;;;;;;;;;;;5055124;28;20365;-57
2021/04/18 05:08:49;;;;;;;;;;;;;;;;;;5052388;28;19915;-60
2021/04/18 05:11:15;;;;;;;;;;;;;;;;;;5053273;28;19919;-60
2021/04/18 05:13:41;;;;;;;;;;;;;;;;;;5054524;28;20007;-59
2021/04/18 05:16:07;;;;;;;;;;;;;;;;;;5053012;28;20009;-57
2021/04/18 05:18:33;;;;;;;;;;;;;;;;;;5052619;28;20383;-59
2021/04/18 05:20:59;;;;;;;;;;;;;;;;;;5052151;28;19915;-58
2021/04/18 05:23:26;;;;;;;;;;;;;;;;;;5052620;28;19919;-58
2021/04/18 05:25:52;;;;;;;;;;;;;;;;;;5051894;28;19992;-61
2021/04/18 05:28:18;;;;;;;;;;;;;;;;;;5052409;28;19909;-59
2021/04/18 05:30:44;;;;;;;;;;;;;;;;;;5053062;28;19960;-58
2021/04/18 05:33:10;;;;;;;;;;;;;;;;;;5051971;28;20381;-60
2021/04/18 05:35:36;;;;;;;;;;;;;;;;;;5052281;28;19909;-60
2021/04/18 05:38:02;;;;;;;;;;;;;;;;;;5052115;28;19966;-58
2021/04/18 05:40:28;;;;;;;;;;;;;;;;;;5052075;28;20338;-62
2021/04/18 05:42:54;;;;;;;;;;;;;;;;;;5051744;28;19904;-57
2021/04/18 05:45:20;;;;;;;;;;;;;;;;;;5053370;28;19911;-60
2021/04/18 05:47:46;;;;;;;;;;;;;;;;;;5055160;28;19905;-59
2021/04/18 05:50:12;;;;;;;;;;;;;;;;;;5054234;28;19917;-58
2021/04/18 05:52:38;;;;;;;;;;;;;;;;;;5051858;28;19928;-59
2021/04/18 05:55:04;;;;;;;;;;;;;;;;;;5052789;28;19912;-60
2021/04/18 05:57:30;;;;;;;;;;;;;;;;;;5055848;28;19912;-60
2021/04/18 05:59:56;;;;;;;;;;;;;;;;;;5057713;28;19905;-59
2021/04/18 06:02:22;;;;;;;;;;;;;;;;;;5058856;28;20368;-59
2021/04/18 06:04:48;;;;;;;;;;;;;;;;;;5057037;28;19928;-61
2021/04/18 06:07:14;;;;;;;;;;;;;;;;;;5059621;28;19911;-59
2021/04/18 06:09:40;;;;;;;;;;;;;;;;;;5056845;28;19912;-59
2021/04/18 06:12:06;;;;;;;;;;;;;;;;;;5058520;28;19984;-59
2021/04/18 06:14:32;;;;;;;;;;;;;;;;;;5055474;28;19911;-60
2021/04/18 06:16:58;;;;;;;;;;;;;;;;;;5055696;28;20078;-58
2021/04/18 06:19:24;;;;;;;;;;;;;;;;;;5055218;28;19999;-59
2021/04/18 06:21:50;;;;;;;;;;;;;;;;;;5055723;28;20058;-59
2021/04/18 06:24:16;;;;;;;;;;;;;;;;;;5055931;28;19916;-60
2021/04/18 06:26:42;;;;;;;;;;;;;;;;;;5055609;28;19909;-58
2021/04/18 06:29:08;;;;;;;;;;;;;;;;;;5055426;28;19908;-59
2021/04/18 06:31:34;;;;;;;;;;;;;;;;;;5058363;28;19904;-59
2021/04/18 06:34:00;;;;;;;;;;;;;;;;;;5056746;28;20255;-58
2021/04/18 06:36:25;;;;;;;;;;;;;;;;;;5056496;28;20330;-63
2021/04/18 06:38:51;;;;;;;;;;;;;;;;;;5056731;28;20270;-59
2021/04/18 06:41:17;;;;;;;;;;;;;;;;;;5055055;28;20378;-59
2021/04/18 06:43:43;;;;;;;;;;;;;;;;;;5055572;28;19913;-59
2021/04/18 06:46:09;;;;;;;;;;;;;;;;;;5054696;28;19912;-58
2021/04/18 06:48:35;;;;;;;;;;;;;;;;;;5055223;28;19905;-58
2021/04/18 06:51:01;;;;;;;;;;;;;;;;;;5056483;28;19917;-59
2021/04/18 06:53:27;;;;;;;;;;;;;;;;;;5054515;28;20062;-61
2021/04/18 06:55:53;;;;;;;;;;;;;;;;;;5055990;28;19904;-59
2021/04/18 06:58:19;;;;;;;;;;;;;;;;;;5055729;28;19958;-58
2021/04/18 07:00:45;;;;;;;;;;;;;;;;;;5057307;28;19904;-63
2021/04/18 07:03:11;;;;;;;;;;;;;;;;;;5055387;28;19904;-58
2021/04/18 07:05:36;;;;;;;;;;;;;;;;;;5054759;28;19909;-58
2021/04/18 07:08:02;;;;;;;;;;;;;;;;;;5054080;28;20382;-59
2021/04/18 07:10:30;;;;;;;;;;;;;;;;;;5054102;28;19952;-59
2021/04/18 07:12:56;;;;;;;;;;;;;;;;;;5054326;28;19905;-58
2021/04/18 07:15:22;;;;;;;;;;;;;;;;;;5036568;28;19915;-60
2021/04/18 07:17:48;;;;;;;;;;;;;;;;;;5054143;28;20003;-59
2021/04/18 07:20:14;;;;;;;;;;;;;;;;;;5054284;28;19991;-58
2021/04/18 07:22:40;;;;;;;;;;;;;;;;;;5054822;28;19909;-57
2021/04/18 07:25:06;;;;;;;;;;;;;;;;;;5054004;28;19913;-58
2021/04/18 07:27:32;;;;;;;;;;;;;;;;;;5036599;28;19910;-59
2021/04/18 07:29:57;;;;;;;;;;;;;;;;;;5054101;28;20394;-58
2021/04/18 07:32:23;;;;;;;;;;;;;;;;;;5054379;28;19995;-59
2021/04/18 07:34:49;;;;;;;;;;;;;;;;;;5053951;28;19904;-58
2021/04/18 07:37:15;;;;;;;;;;;;;;;;;;5054143;28;19974;-58
2021/04/18 07:39:41;;;;;;;;;;;;;;;;;;5054218;28;20391;-59
2021/04/18 07:42:07;;;;;;;;;;;;;;;;;;5036275;28;19915;-58
2021/04/18 07:44:33;;;;;;;;;;;;;;;;;;5053755;28;19905;-59
2021/04/18 07:46:59;;;;;;;;;;;;;;;;;;5055037;28;19915;-59
2021/04/18 07:49:25;;;;;;;;;;;;;;;;;;5037306;28;19960;-58
2021/04/18 07:51:51;;;;;;;;;;;;;;;;;;5053520;28;19927;-59
2021/04/18 07:54:17;;;;;;;;;;;;;;;;;;5053772;28;19986;-58
2021/04/18 07:56:43;;;;;;;;;;;;;;;;;;5053782;28;19908;-58
2021/04/18 07:59:09;;;;;;;;;;;;;;;;;;5053531;28;19909;-60
2021/04/18 08:01:35;;;;;;;;;;;;;;;;;;5053323;28;19905;-59
2021/04/18 08:04:01;;;;;;;;;;;;;;;;;;5054215;28;20268;-60
2021/04/18 08:06:27;;;;;;;;;;;;;;;;;;5032365;28;19920;-58
2021/04/18 08:08:52;;;;;;;;;;;;;;;;;;5051687;28;19912;-58
2021/04/18 08:11:18;;;;;;;;;;;;;;;;;;5051602;28;19912;-58
2021/04/18 08:13:44;;;;;;;;;;;;;;;;;;5048744;28;19959;-56
2021/04/18 08:16:10;;;;;;;;;;;;;;;;;;5051170;28;20003;-59
2021/04/18 08:18:37;;;;;;;;;;;;;;;;;;5050573;28;19912;-58
2021/04/18 08:21:03;;;;;;;;;;;;;;;;;;5051704;28;19908;-58
2021/04/18 08:23:29;;;;;;;;;;;;;;;;;;5052212;28;20350;-58
2021/04/18 08:25:55;;;;;;;;;;;;;;;;;;5050096;28;19905;-58
2021/04/18 08:28:20;;;;;;;;;;;;;;;;;;5050632;28;19905;-58
2021/04/18 08:30:46;;;;;;;;;;;;;;;;;;5048210;28;19919;-59
2021/04/18 08:33:12;;;;;;;;;;;;;;;;;;5050894;28;19909;-59
2021/04/18 08:35:38;;;;;;;;;;;;;;;;;;5031238;28;19963;-60
2021/04/18 08:38:04;;;;;;;;;;;;;;;;;;5031286;28;19904;-58
2021/04/18 08:40:30;;;;;;;;;;;;;;;;;;5050148;28;19909;-59
2021/04/18 08:42:56;;;;;;;;;;;;;;;;;;5047580;28;19967;-60
2021/04/18 08:45:22;;;;;;;;;;;;;;;;;;5049743;28;19911;-58
2021/04/18 08:47:48;;;;;;;;;;;;;;;;;;5047976;28;19909;-58
2021/04/18 08:50:16;;;;;;;;;;;;;;;;;;5050117;28;19922;-61
2021/04/18 08:52:42;;;;;;;;;;;;;;;;;;5048952;28;20380;-59
2021/04/18 08:55:08;;;;;;;;;;;;;;;;;;5050219;28;20464;-58
2021/04/18 08:57:34;;;;;;;;;;;;;;;;;;5050527;28;19967;-59
2021/04/18 09:00:00;;;;;;;;;;;;;;;;;;5047326;28;19905;-60
2021/04/18 09:02:26;;;;;;;;;;;;;;;;;;5050885;28;19905;-58
2021/04/18 09:04:53;;;;;;;;;;;;;;;;;;5047224;28;20347;-59
2021/04/18 09:07:19;;;;;;;;;;;;;;;;;;5048807;28;19915;-62
2021/04/18 09:09:45;;;;;;;;;;;;;;;;;;5051111;28;20186;-58
2021/04/18 09:12:11;;;;;;;;;;;;;;;;;;5050591;28;19956;-59
2021/04/18 09:14:37;;;;;;;;;;;;;;;;;;5038480;23;19949;-59
2021/04/18 09:17:03;;;;;;;;;;;;;;;;;;5006775;28;19905;-59
2021/04/18 09:19:29;;;;;;;;;;;;;;;;;;4995348;28;19909;-59
2021/04/18 09:21:55;;;;;;;;;;;;;;;;;;4995209;28;19965;-59
2021/04/18 09:24:21;;;;;;;;;;;;;;;;;;5009037;28;19945;-60
2021/04/18 09:26:47;;;;;;;;;;;;;;;;;;5010567;28;19964;-61
2021/04/18 09:29:13;;;;;;;;;;;;;;;;;;5004986;28;19967;-61
2021/04/18 09:31:39;;;;;;;;;;;;;;;;;;5002731;28;19914;-58
2021/04/18 09:34:05;;;;;;;;;;;;;;;;;;5005091;28;20382;-59
2021/04/18 09:36:31;;;;;;;;;;;;;;;;;;5006756;28;19912;-58
2021/04/18 09:38:57;;;;;;;;;;;;;;;;;;5002848;28;19912;-60
2021/04/18 09:41:23;;;;;;;;;;;;;;;;;;5009367;28;19905;-58
2021/04/18 09:43:49;;;;;;;;;;;;;;;;;;5003507;28;19971;-61
2021/04/18 09:46:15;;;;;;;;;;;;;;;;;;5007372;28;20010;-59
2021/04/18 09:48:41;;;;;;;;;;;;;;;;;;5004610;28;20275;-60
2021/04/18 09:51:08;;;;;;;;;;;;;;;;;;5005532;28;19920;-59
2021/04/18 09:53:35;;;;;;;;;;;;;;;;;;5006170;28;19917;-59
2021/04/18 09:56:03;;;;;;;;;;;;;;;;;;5003749;28;19988;-59
2021/04/18 09:58:29;;;;;;;;;;;;;;;;;;5007968;28;19905;-61
2021/04/18 10:00:56;;;;;;;;;;;;;;;;;;5002766;28;19912;-60
2021/04/18 10:03:21;;;;;;;;;;;;;;;;;;5007885;28;19910;-59
2021/04/18 10:05:47;;;;;;;;;;;;;;;;;;5011159;28;19992;-60
2021/04/18 10:08:13;;;;;;;;;;;;;;;;;;5000871;28;19938;-59
2021/04/18 10:10:39;;;;;;;;;;;;;;;;;;5014709;28;19975;-58
2021/04/18 10:13:05;;;;;;;;;;;;;;;;;;5015812;28;19952;-57
2021/04/18 10:15:31;;;;;;;;;;;;;;;;;;5000149;28;19926;-58
2021/04/18 10:17:57;;;;;;;;;;;;;;;;;;4996157;28;19905;-58
2021/04/18 10:20:23;;;;;;;;;;;;;;;;;;4995311;28;19905;-58
2021/04/18 10:22:49;;;;;;;;;;;;;;;;;;4995929;28;20013;-58
2021/04/18 10:25:15;;;;;;;;;;;;;;;;;;4995424;28;19913;-58
2021/04/18 10:27:41;;;;;;;;;;;;;;;;;;4995533;28;19972;-59
2021/04/18 10:30:07;;;;;;;;;;;;;;;;;;4995649;28;19918;-59
2021/04/18 10:32:33;;;;;;;;;;;;;;;;;;4994137;28;19968;-59
2021/04/18 10:34:59;;;;;;;;;;;;;;;;;;4978235;28;19920;-60
2021/04/18 10:37:25;;;;;;;;;;;;;;;;;;4995637;28;19905;-60
2021/04/18 10:39:51;;;;;;;;;;;;;;;;;;4996289;28;19916;-61
2021/04/18 10:42:17;;;;;;;;;;;;;;;;;;4977312;28;20283;-61
2021/04/18 10:44:42;;;;;;;;;;;;;;;;;;5014667;28;19917;-59
2021/04/18 10:47:11;;;;;;;;;;;;;;;;;;5015009;28;20400;-59
2021/04/18 10:49:37;;;;;;;;;;;;;;;;;;5014570;28;19914;-59
2021/04/18 10:52:03;;;;;;;;;;;;;;;;;;5015433;28;19919;-60
2021/04/18 10:54:29;;;;;;;;;;;;;;;;;;4997568;28;19968;-59
2021/04/18 10:56:55;;;;;;;;;;;;;;;;;;5015106;28;19905;-59
2021/04/18 10:59:22;;;;;;;;;;;;;;;;;;5014499;28;19905;-59
2021/04/18 11:01:48;;;;;;;;;;;;;;;;;;4997276;28;19905;-60
2021/04/18 11:04:15;;;;;;;;;;;;;;;;;;5014713;28;20359;-60
2021/04/18 11:06:41;;;;;;;;;;;;;;;;;;5014532;28;20312;-59
2021/04/18 11:09:07;;;;;;;;;;;;;;;;;;5014995;28;20068;-58
2021/04/18 11:11:33;;;;;;;;;;;;;;;;;;5006836;28;19913;-60
2021/04/18 11:13:59;;;;;;;;;;;;;;;;;;5013924;28;19914;-58
2021/04/18 11:16:25;;;;;;;;;;;;;;;;;;5015176;28;19910;-60
2021/04/18 11:18:51;;;;;;;;;;;;;;;;;;5014697;28;19941;-59
2021/04/18 11:21:17;;;;;;;;;;;;;;;;;;5014658;28;20359;-59
2021/04/18 11:23:43;;;;;;;;;;;;;;;;;;5015062;28;19920;-60
2021/04/18 11:26:09;;;;;;;;;;;;;;;;;;5001197;28;19909;-59
2021/04/18 11:28:35;;;;;;;;;;;;;;;;;;5014467;28;19916;-60
2021/04/18 11:31:01;;;;;;;;;;;;;;;;;;5011920;28;20375;-59
2021/04/18 11:33:27;;;;;;;;;;;;;;;;;;5012536;28;19905;-61
2021/04/18 11:35:53;;;;;;;;;;;;;;;;;;5010035;28;19909;-58
2021/04/18 11:38:19;;;;;;;;;;;;;;;;;;5012383;28;19909;-59
2021/04/18 11:40:45;;;;;;;;;;;;;;;;;;5014050;28;19905;-59
2021/04/18 11:43:11;;;;;;;;;;;;;;;;;;5014437;28;19917;-59
2021/04/18 11:45:36;;;;;;;;;;;;;;;;;;5014261;28;20356;-58
2021/04/18 11:48:02;;;;;;;;;;;;;;;;;;5014237;28;20003;-61
2021/04/18 11:50:28;;;;;;;;;;;;;;;;;;5015062;28;20051;-59
2021/04/18 11:52:55;;;;;;;;;;;;;;;;;;5013513;28;19909;-59
2021/04/18 11:55:23;;;;;;;;;;;;;;;;;;5013029;28;19996;-59
2021/04/18 11:57:49;;;;;;;;;;;;;;;;;;5012426;28;19920;-59
2021/04/18 12:00:15;;;;;;;;;;;;;;;;;;5012597;28;19910;-58
2021/04/18 12:02:43;;;;;;;;;;;;;;;;;;5012458;28;20440;-59
2021/04/18 12:05:09;;;;;;;;;;;;;;;;;;5011384;28;19961;-59
2021/04/18 12:07:35;;;;;;;;;;;;;;;;;;5012419;28;20011;-59
2021/04/18 12:10:01;;;;;;;;;;;;;;;;;;5012472;28;20347;-59
2021/04/18 12:12:27;;;;;;;;;;;;;;;;;;5013921;28;19933;-60
2021/04/18 12:14:54;;;;;;;;;;;;;;;;;;5003113;28;19922;-59
2021/04/18 12:17:19;;;;;;;;;;;;;;;;;;4998332;28;19910;-60
2021/04/18 12:19:46;;;;;;;;;;;;;;;;;;5002003;28;20496;-59
2021/04/18 12:22:12;;;;;;;;;;;;;;;;;;4993787;28;19905;-59
2021/04/18 12:24:38;;;;;;;;;;;;;;;;;;5007147;28;19952;-60
2021/04/18 12:27:04;;;;;;;;;;;;;;;;;;5010362;28;19909;-60
2021/04/18 12:29:31;;;;;;;;;;;;;;;;;;5007775;28;19905;-59
2021/04/18 12:31:57;;;;;;;;;;;;;;;;;;5009359;28;19916;-59
2021/04/18 12:34:23;;;;;;;;;;;;;;;;;;5009734;28;19913;-59
2021/04/18 12:36:49;;;;;;;;;;;;;;;;;;5007101;28;19916;-58
2021/04/18 12:39:15;;;;;;;;;;;;;;;;;;5010218;28;19906;-58
2021/04/18 12:41:41;;;;;;;;;;;;;;;;;;5006791;28;19909;-59
2021/04/18 12:44:06;;;;;;;;;;;;;;;;;;5007892;28;20302;-58
2021/04/18 12:46:32;;;;;;;;;;;;;;;;;;5012724;28;19909;-59
2021/04/18 12:48:58;;;;;;;;;;;;;;;;;;5012945;28;20000;-59
2021/04/18 12:51:27;;;;;;;;;;;;;;;;;;5013116;28;20043;-61
2021/04/18 12:53:53;;;;;;;;;;;;;;;;;;5013320;28;19906;-60
2021/04/18 12:56:19;;;;;;;;;;;;;;;;;;5008919;28;20367;-59
2021/04/18 12:58:45;;;;;;;;;;;;;;;;;;5006531;28;19913;-59
2021/04/18 13:01:11;;;;;;;;;;;;;;;;;;4990406;28;20278;-58
2021/04/18 13:03:37;;;;;;;;;;;;;;;;;;5003373;28;19906;-58
2021/04/18 13:06:03;;;;;;;;;;;;;;;;;;5005979;28;19909;-58
2021/04/18 13:08:29;;;;;;;;;;;;;;;;;;5005523;28;19963;-57
2021/04/18 13:10:55;;;;;;;;;;;;;;;;;;5004859;28;19922;-58
2021/04/18 13:13:21;;;;;;;;;;;;;;;;;;5007302;28;19976;-58
2021/04/18 13:15:47;;;;;;;;;;;;;;;;;;5001924;28;20256;-58
2021/04/18 13:18:13;;;;;;;;;;;;;;;;;;5007123;28;19916;-63
2021/04/18 13:20:39;;;;;;;;;;;;;;;;;;5003386;28;19960;-58
2021/04/18 13:23:05;;;;;;;;;;;;;;;;;;5006283;28;19909;-58
2021/04/18 13:25:31;;;;;;;;;;;;;;;;;;5005049;28;19906;-58
2021/04/18 13:27:57;;;;;;;;;;;;;;;;;;5010237;28;19906;-58
2021/04/18 13:30:23;;;;;;;;;;;;;;;;;;5011142;28;19967;-58
2021/04/18 13:32:49;;;;;;;;;;;;;;;;;;5012581;28;20398;-58
2021/04/18 13:35:15;;;;;;;;;;;;;;;;;;5012364;28;19909;-58
2021/04/18 13:37:41;;;;;;;;;;;;;;;;;;5012430;28;19905;-59
2021/04/18 13:40:07;;;;;;;;;;;;;;;;;;5012427;28;19963;-59
2021/04/18 13:42:33;;;;;;;;;;;;;;;;;;5012603;28;20355;-58
2021/04/18 13:44:58;;;;;;;;;;;;;;;;;;5012566;28;19925;-59
2021/04/18 13:47:24;;;;;;;;;;;;;;;;;;5012451;28;19905;-58
2021/04/18 13:49:50;;;;;;;;;;;;;;;;;;5007729;28;20011;-57
2021/04/18 13:52:16;;;;;;;;;;;;;;;;;;4998006;28;20376;-61
2021/04/18 13:54:42;;;;;;;;;;;;;;;;;;5001946;28;19954;-61
2021/04/18 13:57:08;;;;;;;;;;;;;;;;;;4989912;28;19905;-60
2021/04/18 13:59:34;;;;;;;;;;;;;;;;;;5000887;28;19913;-60
2021/04/18 14:02:00;;;;;;;;;;;;;;;;;;4999523;28;20005;-57
2021/04/18 14:04:26;;;;;;;;;;;;;;;;;;5009189;28;19955;-57
2021/04/18 14:06:52;;;;;;;;;;;;;;;;;;5014131;28;19968;-60
2021/04/18 14:09:18;;;;;;;;;;;;;;;;;;5013943;28;19999;-59
2021/04/18 14:11:44;;;;;;;;;;;;;;;;;;5014099;28;20422;-65
2021/04/18 14:14:10;;;;;;;;;;;;;;;;;;5014278;28;19925;-59
2021/04/18 14:16:37;;;;;;;;;;;;;;;;;;5008148;28;19909;-62
2021/04/18 14:19:03;;;;;;;;;;;;;;;;;;5016329;28;20366;-69
2021/04/18 14:21:29;;;;;;;;;;;;;;;;;;5012634;28;19952;-61
2021/04/18 14:23:55;;;;;;;;;;;;;;;;;;5012442;28;19905;-64
2021/04/18 14:26:23;;;;;;;;;;;;;;;;;;5008339;28;19933;-61
2021/04/18 14:28:49;;;;;;;;;;;;;;;;;;5011856;28;20298;-65
2021/04/18 14:31:15;;;;;;;;;;;;;;;;;;5008068;28;19917;-63
2021/04/18 14:33:41;;;;;;;;;;;;;;;;;;5007506;28;20008;-63
2021/04/18 14:36:06;;;;;;;;;;;;;;;;;;5009507;28;20390;-62
2021/04/18 14:38:32;;;;;;;;;;;;;;;;;;5010636;28;19964;-61
2021/04/18 14:40:58;;;;;;;;;;;;;;;;;;5015485;28;19972;-64
2021/04/18 14:43:24;;;;;;;;;;;;;;;;;;5014426;28;19910;-64
2021/04/18 14:45:50;;;;;;;;;;;;;;;;;;5015498;28;19909;-64
2021/04/18 14:48:16;;;;;;;;;;;;;;;;;;5014886;28;19905;-63
2021/04/18 14:50:42;;;;;;;;;;;;;;;;;;5014248;28;19913;-60
2021/04/18 14:53:08;;;;;;;;;;;;;;;;;;5014729;28;20394;-59
2021/04/18 14:55:34;;;;;;;;;;;;;;;;;;5014477;28;19906;-64
2021/04/18 14:58:00;;;;;;;;;;;;;;;;;;5014891;28;19912;-63
2021/04/18 15:00:26;;;;;;;;;;;;;;;;;;5014570;28;19992;-63
2021/04/18 15:02:52;;;;;;;;;;;;;;;;;;5014091;28;20016;-62
2021/04/18 15:05:18;;;;;;;;;;;;;;;;;;5014835;28;19972;-62
2021/04/18 15:07:44;;;;;;;;;;;;;;;;;;5014431;28;19996;-62
2021/04/18 15:10:09;;;;;;;;;;;;;;;;;;5013409;28;20004;-61
2021/04/18 15:12:35;;;;;;;;;;;;;;;;;;5010781;28;19967;-63
2021/04/18 15:15:01;;;;;;;;;;;;;;;;;;5014105;28;19929;-61
2021/04/18 15:17:27;;;;;;;;;;;;;;;;;;5004526;28;19912;-61
2021/04/18 15:19:53;;;;;;;;;;;;;;;;;;5007968;28;19996;-60
2021/04/18 15:22:19;;;;;;;;;;;;;;;;;;4993827;28;19913;-62
2021/04/18 15:24:45;;;;;;;;;;;;;;;;;;5014064;28;19924;-61
2021/04/18 15:27:11;;;;;;;;;;;;;;;;;;5014046;28;20003;-65
2021/04/18 15:29:37;;;;;;;;;;;;;;;;;;5013730;28;20391;-62
2021/04/18 15:32:03;;;;;;;;;;;;;;;;;;5014114;28;19955;-61
2021/04/18 15:34:29;;;;;;;;;;;;;;;;;;5014153;28;19960;-63
2021/04/18 15:36:55;;;;;;;;;;;;;;;;;;5013950;28;19952;-62
2021/04/18 15:39:21;;;;;;;;;;;;;;;;;;5014462;28;19992;-62
2021/04/18 15:41:47;;;;;;;;;;;;;;;;;;5014355;28;20412;-63
2021/04/18 15:44:13;;;;;;;;;;;;;;;;;;5014563;28;19952;-62
2021/04/18 15:46:39;;;;;;;;;;;;;;;;;;5004472;28;19935;-59
2021/04/18 15:49:05;;;;;;;;;;;;;;;;;;5014812;28;19932;-62
2021/04/18 15:51:31;;;;;;;;;;;;;;;;;;5004762;28;19914;-65
2021/04/18 15:53:57;;;;;;;;;;;;;;;;;;5016798;28;19906;-60
2021/04/18 15:56:23;;;;;;;;;;;;;;;;;;5014799;28;19989;-62
2021/04/18 15:58:49;;;;;;;;;;;;;;;;;;5013769;28;19968;-62
2021/04/18 16:01:15;;;;;;;;;;;;;;;;;;5014222;28;19948;-62
2021/04/18 16:03:41;;;;;;;;;;;;;;;;;;5014048;28;19916;-61
2021/04/18 16:06:07;;;;;;;;;;;;;;;;;;5014747;28;20298;-60
2021/04/18 16:08:33;;;;;;;;;;;;;;;;;;5002198;28;19963;-60
2021/04/18 16:10:59;;;;;;;;;;;;;;;;;;5013892;28;19924;-61
2021/04/18 16:13:25;;;;;;;;;;;;;;;;;;5014310;28;19906;-61
2021/04/18 16:15:51;;;;;;;;;;;;;;;;;;5013888;28;20424;-61
2021/04/18 16:18:17;;;;;;;;;;;;;;;;;;5014070;28;19909;-61
2021/04/18 16:20:43;;;;;;;;;;;;;;;;;;5013856;28;19909;-61
2021/04/18 16:23:09;;;;;;;;;;;;;;;;;;5010284;28;19909;-61
2021/04/18 16:25:35;;;;;;;;;;;;;;;;;;5013484;28;19916;-60
2021/04/18 16:28:01;;;;;;;;;;;;;;;;;;5013403;28;19909;-61
2021/04/18 16:30:30;;;;;;;;;;;;;;;;;;5014040;28;19924;-62
2021/04/18 16:32:56;;;;;;;;;;;;;;;;;;5006586;28;19905;-62
2021/04/18 16:35:22;;;;;;;;;;;;;;;;;;5013216;28;19959;-61
2021/04/18 16:37:48;;;;;;;;;;;;;;;;;;5013080;28;20360;-61